createdAt,value
2023-02-18T00:00:20.144Z,42.22
2023-02-18T00:02:52.832Z,46.55
2023-02-18T00:05:24.590Z,44.67
2023-02-18T00:07:55.995Z,45.53
2023-02-18T00:10:27.514Z,45.30
2023-02-18T00:12:58.966Z,41.15
2023-02-18T00:15:30.435Z,45.55
2023-02-18T00:18:01.940Z,49.13
2023-02-18T00:20:33.418Z,48.35
2023-02-18T00:23:04.899Z,49.97
2023-02-18T00:25:36.320Z,44.95
2023-02-18T00:28:07.748Z,48.97
2023-02-18T00:30:43.901Z,55.28
2023-02-18T00:33:15.710Z,47.47
2023-02-18T00:35:47.245Z,52.35
2023-02-18T00:38:18.677Z,47.03
2023-02-18T00:40:50.123Z,52.30
2023-02-18T00:43:21.551Z,47.92
2023-02-18T00:45:53.192Z,51.97
2023-02-18T00:48:24.686Z,47.10
2023-02-18T00:50:56.115Z,47.93
2023-02-18T00:53:31.009Z,52.17
2023-02-18T00:56:02.642Z,52.70
2023-02-18T00:58:35.827Z,50.45
2023-02-18T01:01:08.974Z,51.30
2023-02-18T01:03:41.992Z,51.90
2023-02-18T01:06:13.816Z,51.88
2023-02-18T01:08:45.406Z,54.50
2023-02-18T01:11:17.159Z,48.72
2023-02-18T01:13:48.955Z,51.88
2023-02-18T01:16:20.480Z,48.40
2023-02-18T01:18:52.006Z,49.30
2023-02-18T01:21:23.488Z,44.28
2023-02-18T01:23:55.032Z,42.78
2023-02-18T01:26:26.502Z,42.50
2023-02-18T01:28:57.970Z,38.25
2023-02-18T01:31:29.538Z,40.65
2023-02-18T01:34:01.099Z,38.83
2023-02-18T01:36:32.503Z,39.70
2023-02-18T01:39:05.731Z,37.53
2023-02-18T01:41:37.226Z,38.42
2023-02-18T01:44:11.843Z,36.43
2023-02-18T01:46:43.753Z,39.67
2023-02-18T01:49:22.650Z,40.47
2023-02-18T01:52:04.901Z,36.72
2023-02-18T01:54:39.734Z,36.35
2023-02-18T01:57:22.573Z,39.33
2023-02-18T02:00:15.380Z,40.80
2023-02-18T02:02:49.496Z,42.22
2023-02-18T02:05:21.933Z,38.90
2023-02-18T02:07:55.020Z,47.08
2023-02-18T02:11:02.305Z,41.92
2023-02-18T02:13:41.969Z,43.67
2023-02-18T02:16:33.976Z,46.65
2023-02-18T02:19:08.451Z,43.63
2023-02-18T02:21:39.874Z,45.10
2023-02-18T02:24:23.192Z,40.67
2023-02-18T02:27:13.250Z,44.78
2023-02-18T02:30:11.845Z,46.20
2023-02-18T02:32:58.616Z,39.00
2023-02-18T02:36:16.697Z,38.23
2023-02-18T02:38:56.464Z,36.13
2023-02-18T02:41:36.707Z,37.65
2023-02-18T02:44:19.819Z,34.27
2023-02-18T02:47:02.651Z,33.13
2023-02-18T02:49:48.400Z,31.30
2023-02-18T02:52:33.717Z,33.47
2023-02-18T02:55:09.657Z,29.97
2023-02-18T02:57:50.925Z,24.70
2023-02-18T03:00:45.298Z,21.88
2023-02-18T03:03:34.910Z,22.10
2023-02-18T03:06:35.833Z,19.47
2023-02-18T03:09:14.582Z,17.20
2023-02-18T03:12:03.070Z,17.33
2023-02-18T03:14:50.921Z,19.10
2023-02-18T03:17:31.124Z,18.17
2023-02-18T03:20:19.342Z,17.02
2023-02-18T03:22:53.602Z,19.80
2023-02-18T03:25:25.884Z,18.92
2023-02-18T03:28:02.945Z,20.08
2023-02-18T03:30:51.941Z,20.15
2023-02-18T03:33:29.091Z,22.60
2023-02-18T03:36:01.495Z,19.67
2023-02-18T03:38:59.424Z,19.80
2023-02-18T03:41:31.139Z,22.65
2023-02-18T03:44:07.716Z,23.63
2023-02-18T03:46:42.251Z,21.45
2023-02-18T03:49:14.935Z,23.42
2023-02-18T03:51:46.386Z,27.73
2023-02-18T03:54:17.811Z,29.42
2023-02-18T03:56:49.295Z,29.20
2023-02-18T03:59:20.799Z,28.52
2023-02-18T04:01:52.212Z,29.83
2023-02-18T04:04:23.962Z,27.57
2023-02-18T04:06:55.436Z,31.73
2023-02-18T04:09:26.905Z,32.55
2023-02-18T04:11:58.362Z,27.55
2023-02-18T04:14:29.928Z,31.07
2023-02-18T04:17:01.503Z,29.27
2023-02-18T04:19:32.969Z,31.90
2023-02-18T04:22:04.413Z,31.85
2023-02-18T04:24:35.915Z,28.63
2023-02-18T04:27:07.461Z,29.77
2023-02-18T04:29:39.145Z,30.33
2023-02-18T04:32:10.555Z,28.67
2023-02-18T04:34:41.983Z,26.17
2023-02-18T04:37:13.443Z,30.17
2023-02-18T04:39:44.883Z,31.73
2023-02-18T04:42:16.359Z,26.92
2023-02-18T04:44:47.830Z,30.90
2023-02-18T04:47:19.234Z,25.00
2023-02-18T04:49:50.859Z,28.67
2023-02-18T04:52:22.625Z,24.60
2023-02-18T04:54:54.056Z,22.92
2023-02-18T04:57:25.532Z,24.27
2023-02-18T04:59:57.006Z,23.33
2023-02-18T05:02:28.480Z,21.53
2023-02-18T05:05:00.096Z,22.35
2023-02-18T05:07:31.538Z,23.17
2023-02-18T05:10:04.129Z,22.05
2023-02-18T05:12:35.555Z,23.08
2023-02-18T05:15:07.604Z,22.45
2023-02-18T05:17:39.002Z,20.50
2023-02-18T05:20:11.046Z,22.15
2023-02-18T05:22:42.585Z,21.17
2023-02-18T05:25:14.062Z,18.75
2023-02-18T05:27:45.659Z,19.17
2023-02-18T05:30:17.426Z,19.88
2023-02-18T05:32:48.893Z,19.60
2023-02-18T05:35:20.306Z,20.70
2023-02-18T05:37:51.792Z,20.30
2023-02-18T05:40:23.242Z,19.85
2023-02-18T05:42:54.756Z,21.23
2023-02-18T05:45:26.419Z,21.27
2023-02-18T05:47:57.967Z,23.67
2023-02-18T05:50:29.773Z,22.60
2023-02-18T05:53:01.294Z,24.90
2023-02-18T05:55:32.728Z,26.33
2023-02-18T05:58:04.261Z,26.35
2023-02-18T06:00:36.862Z,27.15
2023-02-18T06:03:09.786Z,27.90
2023-02-18T06:05:41.227Z,28.52
2023-02-18T06:08:12.663Z,30.02
2023-02-18T06:10:44.246Z,28.13
2023-02-18T06:13:15.848Z,26.92
2023-02-18T06:15:51.130Z,30.30
2023-02-18T06:18:22.816Z,30.30
2023-02-18T06:20:54.427Z,32.42
2023-02-18T06:23:25.838Z,28.50
2023-02-18T06:25:57.374Z,34.80
2023-02-18T06:28:28.828Z,34.17
2023-02-18T06:31:01.763Z,36.13
2023-02-18T06:33:33.536Z,36.87
2023-02-18T06:36:07.961Z,31.55
2023-02-18T06:38:41.713Z,30.77
2023-02-18T06:41:14.752Z,29.52
2023-02-18T06:43:46.170Z,26.30
2023-02-18T06:46:17.665Z,31.23
2023-02-18T06:48:49.164Z,29.52
2023-02-18T06:51:20.589Z,31.60
2023-02-18T06:53:52.059Z,31.23
2023-02-18T06:56:23.478Z,27.63
2023-02-18T06:58:54.881Z,28.15
2023-02-18T07:01:26.395Z,24.23
2023-02-18T07:03:57.877Z,26.00
2023-02-18T07:06:29.480Z,29.05
2023-02-18T07:09:01.010Z,28.63
2023-02-18T07:11:32.557Z,29.75
2023-02-18T07:14:04.038Z,31.85
2023-02-18T07:16:35.590Z,32.88
2023-02-18T07:19:07.091Z,34.47
2023-02-18T07:21:38.590Z,32.45
2023-02-18T07:24:10.120Z,28.83
2023-02-18T07:26:41.575Z,35.45
2023-02-18T07:29:13.035Z,35.38
2023-02-18T07:31:44.592Z,38.10
2023-02-18T07:34:16.122Z,37.67
2023-02-18T07:36:47.548Z,33.28
2023-02-18T07:39:19.017Z,32.65
2023-02-18T07:41:50.415Z,34.10
2023-02-18T07:44:21.869Z,36.47
2023-02-18T07:46:53.336Z,38.70
2023-02-18T07:49:24.820Z,27.23
2023-02-18T07:51:56.591Z,29.75
2023-02-18T07:54:28.145Z,32.03
2023-02-18T07:56:59.551Z,25.67
2023-02-18T07:59:31.000Z,24.90
2023-02-18T08:02:02.882Z,24.58
2023-02-18T08:04:34.386Z,30.73
2023-02-18T08:07:05.792Z,29.33
2023-02-18T08:09:37.491Z,25.52
2023-02-18T08:12:09.277Z,28.45
2023-02-18T08:14:40.727Z,27.90
2023-02-18T08:17:12.456Z,24.95
2023-02-18T08:19:43.944Z,27.98
2023-02-18T08:22:15.639Z,31.98
2023-02-18T08:24:47.233Z,30.93
2023-02-18T08:27:18.666Z,28.85
2023-02-18T08:29:50.187Z,29.85
2023-02-18T08:32:21.814Z,34.28
2023-02-18T08:34:53.293Z,30.13
2023-02-18T08:37:24.834Z,31.83
2023-02-18T08:39:56.338Z,31.43
2023-02-18T08:42:27.793Z,31.88
2023-02-18T08:44:59.312Z,32.00
2023-02-18T08:48:18.702Z,30.80
2023-02-18T08:50:22.259Z,28.13
2023-02-18T08:52:53.691Z,31.38
2023-02-18T08:55:25.148Z,30.60
2023-02-18T08:57:56.601Z,31.25
2023-02-18T09:00:28.222Z,33.20
2023-02-18T09:02:59.656Z,31.73
2023-02-18T09:05:31.137Z,31.52
2023-02-18T09:08:02.599Z,28.30
2023-02-18T09:10:34.704Z,32.78
2023-02-18T09:13:06.182Z,32.92
2023-02-18T09:15:37.676Z,29.77
2023-02-18T09:18:09.169Z,26.45
2023-02-18T09:20:40.622Z,27.38
2023-02-18T09:23:12.062Z,29.30
2023-02-18T09:25:43.529Z,29.60
2023-02-18T09:28:14.996Z,28.05
2023-02-18T09:30:46.524Z,35.70
2023-02-18T09:33:18.603Z,29.85
2023-02-18T09:35:50.011Z,36.53
2023-02-18T09:38:21.445Z,30.92
2023-02-18T09:40:54.410Z,35.28
2023-02-18T09:43:39.100Z,32.20
2023-02-18T09:46:21.711Z,31.73
2023-02-18T09:48:53.235Z,29.67
2023-02-18T09:51:24.705Z,34.80
2023-02-18T09:53:56.162Z,31.15
2023-02-18T09:56:31.579Z,33.38
2023-02-18T09:59:06.935Z,30.00
2023-02-18T10:01:41.497Z,31.80
2023-02-18T10:04:22.448Z,30.80
2023-02-18T10:06:54.924Z,36.13
2023-02-18T10:09:37.617Z,32.45
2023-02-18T10:12:21.737Z,24.83
2023-02-18T10:14:56.156Z,32.60
2023-02-18T10:17:31.402Z,31.80
2023-02-18T10:20:07.810Z,31.70
2023-02-18T10:22:39.963Z,30.50
2023-02-18T10:25:19.419Z,30.80
2023-02-18T10:27:53.361Z,32.08
2023-02-18T10:30:36.040Z,31.13
2023-02-18T10:33:27.624Z,31.60
2023-02-18T10:36:05.045Z,27.87
2023-02-18T10:39:10.106Z,28.95
2023-02-18T10:42:08.893Z,26.20
2023-02-18T10:44:43.031Z,27.77
2023-02-18T10:47:37.483Z,33.42
2023-02-18T10:50:11.045Z,26.55
2023-02-18T10:52:46.461Z,27.95
2023-02-18T10:55:18.819Z,23.15
2023-02-18T10:57:53.237Z,26.57
2023-02-18T11:00:27.939Z,28.60
2023-02-18T11:03:17.460Z,27.97
2023-02-18T11:05:52.172Z,24.13
2023-02-18T11:08:27.643Z,27.95
2023-02-18T11:11:13.043Z,29.00
2023-02-18T11:13:45.493Z,23.73
2023-02-18T11:16:17.436Z,28.13
2023-02-18T11:18:48.925Z,25.77
2023-02-18T11:21:22.061Z,24.50
2023-02-18T11:23:55.667Z,24.38
2023-02-18T11:26:32.513Z,27.42
2023-02-18T11:29:20.884Z,20.60
2023-02-18T11:31:55.219Z,24.05
2023-02-18T11:34:30.427Z,21.60
2023-02-18T11:37:17.675Z,21.27
2023-02-18T11:39:53.052Z,21.33
2023-02-18T11:42:26.913Z,23.02
2023-02-18T11:45:00.255Z,22.23
2023-02-18T11:47:36.409Z,18.88
2023-02-18T11:50:11.016Z,22.05
2023-02-18T11:52:45.444Z,20.55
2023-02-18T11:55:17.151Z,22.80
2023-02-18T11:58:06.217Z,23.50
2023-02-18T12:00:46.070Z,21.75
2023-02-18T12:03:30.694Z,22.65
2023-02-18T12:06:05.581Z,20.08
2023-02-18T12:08:48.700Z,20.90
2023-02-18T12:11:29.122Z,24.45
2023-02-18T12:14:00.560Z,21.60
2023-02-18T12:16:41.176Z,19.77
2023-02-18T12:19:21.807Z,18.30
2023-02-18T12:22:09.964Z,19.77
2023-02-18T12:24:52.415Z,14.93
2023-02-18T12:27:34.245Z,20.00
2023-02-18T12:30:27.609Z,20.50
2023-02-18T12:33:07.864Z,16.38
2023-02-18T12:36:07.408Z,23.50
2023-02-18T12:38:54.386Z,20.87
2023-02-18T12:41:45.463Z,18.95
2023-02-18T12:44:39.917Z,19.48
2023-02-18T12:47:29.457Z,22.27
2023-02-18T12:50:38.365Z,15.48
2023-02-18T12:53:35.924Z,20.02
2023-02-18T12:56:30.144Z,18.10
2023-02-18T12:59:16.717Z,24.05
2023-02-18T13:02:11.269Z,22.42
2023-02-18T13:05:11.355Z,21.38
2023-02-18T13:07:54.683Z,20.52
2023-02-18T13:10:29.022Z,16.63
2023-02-18T13:13:09.818Z,19.80
2023-02-18T13:15:45.580Z,21.10
2023-02-18T13:18:23.958Z,20.58
2023-02-18T13:21:00.170Z,19.45
2023-02-18T13:23:39.500Z,21.17
2023-02-18T13:26:14.877Z,19.27
2023-02-18T13:29:27.804Z,21.25
2023-02-18T13:32:23.891Z,15.60
2023-02-18T13:35:05.210Z,18.95
2023-02-18T13:37:45.896Z,19.37
2023-02-18T13:40:22.624Z,13.77
2023-02-18T13:42:54.652Z,20.20
2023-02-18T13:45:31.873Z,15.25
2023-02-18T13:48:23.129Z,18.75
2023-02-18T13:51:02.269Z,17.40
2023-02-18T13:53:40.108Z,17.52
2023-02-18T13:56:17.477Z,18.13
2023-02-18T13:58:55.843Z,15.02
2023-02-18T14:01:46.898Z,17.10
2023-02-18T14:04:48.251Z,15.17
2023-02-18T14:07:25.883Z,17.20
2023-02-18T14:09:59.745Z,15.75
2023-02-18T14:12:44.625Z,15.70
2023-02-18T14:15:18.827Z,16.40
2023-02-18T14:18:14.515Z,16.05
2023-02-18T14:20:48.879Z,17.00
2023-02-18T14:23:20.280Z,11.73
2023-02-18T14:26:06.768Z,16.85
2023-02-18T14:28:49.573Z,16.50
2023-02-18T14:31:42.685Z,17.65
2023-02-18T14:34:37.127Z,17.10
2023-02-18T14:37:23.906Z,17.15
2023-02-18T14:39:55.259Z,15.40
2023-02-18T14:42:50.631Z,17.45
2023-02-18T14:45:46.709Z,15.90
2023-02-18T14:48:38.797Z,15.75
2023-02-18T14:51:14.839Z,19.23
2023-02-18T14:53:47.384Z,20.85
2023-02-18T14:56:21.238Z,18.23
2023-02-18T14:58:58.096Z,18.35
2023-02-18T15:01:31.517Z,21.98
2023-02-18T15:04:04.161Z,20.40
2023-02-18T15:06:38.228Z,21.52
2023-02-18T15:09:18.123Z,16.10
2023-02-18T15:11:52.091Z,17.75
2023-02-18T15:14:28.807Z,23.52
2023-02-18T15:17:01.843Z,21.35
2023-02-18T15:25:54.000Z,22.30
2023-02-18T15:28:32.584Z,22.73
2023-02-18T15:31:04.984Z,23.33
2023-02-18T15:33:36.508Z,25.00
2023-02-18T15:36:13.992Z,22.10
2023-02-18T15:38:46.039Z,21.35
2023-02-18T15:41:20.617Z,22.60
2023-02-18T15:43:59.501Z,25.07
2023-02-18T15:46:32.735Z,29.23
2023-02-18T15:49:07.846Z,27.17
2023-02-18T15:51:43.051Z,25.80
2023-02-18T15:54:21.196Z,28.50
2023-02-18T15:56:55.776Z,28.23
2023-02-18T15:59:32.359Z,23.75
2023-02-18T16:02:22.592Z,28.30
2023-02-18T16:04:58.886Z,28.45
2023-02-18T16:07:36.796Z,25.13
2023-02-18T16:10:16.231Z,25.58
2023-02-18T16:12:55.289Z,21.83
2023-02-18T16:15:30.283Z,24.53
2023-02-18T16:18:01.927Z,29.80
2023-02-18T16:20:38.153Z,23.00
2023-02-18T16:23:14.865Z,29.05
2023-02-18T16:25:49.213Z,26.48
2023-02-18T16:28:27.417Z,29.73
2023-02-18T16:30:58.904Z,25.88
2023-02-18T16:33:30.336Z,25.60
2023-02-18T16:36:01.770Z,24.70
2023-02-18T16:38:33.424Z,28.42
2023-02-18T16:41:05.223Z,24.48
2023-02-18T16:43:36.690Z,29.30
2023-02-18T16:46:19.676Z,29.88
2023-02-18T16:48:54.072Z,30.50
2023-02-18T16:51:34.612Z,27.77
2023-02-18T16:54:06.238Z,32.20
2023-02-18T16:56:38.138Z,32.33
2023-02-18T16:59:09.592Z,32.80
2023-02-18T17:01:44.238Z,29.13
2023-02-18T17:04:17.641Z,37.92
2023-02-18T17:06:49.391Z,37.58
2023-02-18T17:09:23.326Z,33.17
2023-02-18T17:11:55.936Z,33.85
2023-02-18T17:14:27.427Z,37.53
2023-02-18T17:17:02.437Z,38.75
2023-02-18T17:19:33.900Z,35.30
2023-02-18T17:22:05.460Z,34.13
2023-02-18T17:24:36.903Z,34.73
2023-02-18T17:27:10.248Z,35.75
2023-02-18T17:29:41.693Z,28.70
2023-02-18T17:32:13.923Z,30.00
2023-02-18T17:34:45.483Z,32.58
2023-02-18T17:37:16.972Z,31.92
2023-02-18T17:39:48.450Z,33.47
2023-02-18T17:42:20.007Z,28.15
2023-02-18T17:44:51.477Z,32.40
2023-02-18T17:47:22.948Z,34.42
2023-02-18T17:49:54.477Z,33.70
2023-02-18T17:52:30.529Z,36.75
2023-02-18T17:55:13.143Z,31.95
2023-02-18T17:57:44.712Z,28.63
2023-02-18T18:00:20.049Z,29.98
2023-02-18T18:02:52.049Z,34.88
2023-02-18T18:05:25.087Z,33.38
2023-02-18T18:07:56.618Z,30.48
2023-02-18T18:10:31.990Z,29.80
2023-02-18T18:13:09.669Z,32.33
2023-02-18T18:15:43.540Z,31.60
2023-02-18T18:18:15.379Z,34.53
2023-02-18T18:20:51.060Z,40.60
2023-02-18T18:23:23.311Z,29.50
2023-02-18T18:25:57.344Z,36.08
2023-02-18T18:28:28.839Z,35.78
2023-02-18T18:31:02.624Z,36.22
2023-02-18T18:33:34.566Z,37.35
2023-02-18T18:36:06.712Z,32.85
2023-02-18T18:38:38.327Z,31.07
2023-02-18T18:41:14.150Z,32.13
2023-02-18T18:43:46.099Z,37.65
2023-02-18T18:46:18.093Z,34.60
2023-02-18T18:48:49.579Z,38.27
2023-02-18T18:51:27.354Z,35.40
2023-02-18T18:53:58.939Z,26.23
2023-02-18T18:56:30.389Z,28.23
2023-02-18T18:59:01.920Z,32.05
2023-02-18T19:01:33.478Z,26.60
2023-02-18T19:04:05.178Z,29.03
2023-02-18T19:06:36.716Z,30.45
2023-02-18T19:09:10.649Z,31.83
2023-02-18T19:11:42.269Z,32.58
2023-02-18T19:14:14.129Z,32.88
2023-02-18T19:16:45.661Z,31.80
2023-02-18T19:19:17.156Z,30.80
2023-02-18T19:21:48.555Z,28.13
2023-02-18T19:24:19.983Z,32.75
2023-02-18T19:26:51.412Z,31.23
2023-02-18T19:29:22.879Z,34.88
2023-02-18T19:31:54.382Z,35.85
2023-02-18T19:34:25.891Z,39.42
2023-02-18T19:36:57.345Z,37.47
2023-02-18T19:39:28.803Z,35.43
2023-02-18T19:42:00.220Z,37.45
2023-02-18T19:44:34.933Z,39.38
2023-02-18T19:47:06.468Z,36.15
2023-02-18T19:49:37.920Z,39.70
2023-02-18T19:52:09.358Z,36.60
2023-02-18T19:54:40.813Z,32.00
2023-02-18T19:57:13.091Z,37.15
2023-02-18T19:59:44.784Z,33.88
2023-02-18T20:02:19.230Z,33.97
2023-02-18T20:04:51.333Z,32.53
2023-02-18T20:07:23.125Z,32.42
2023-02-18T20:09:54.754Z,39.30
2023-02-18T20:12:26.451Z,32.10
2023-02-18T20:14:58.039Z,40.15
2023-02-18T20:17:29.945Z,34.33
2023-02-18T20:20:01.364Z,39.30
2023-02-18T20:22:32.749Z,37.17
2023-02-18T20:25:04.573Z,42.25
2023-02-18T20:27:36.389Z,42.13
2023-02-18T20:30:08.668Z,43.65
2023-02-18T20:32:40.248Z,42.25
2023-02-18T20:35:11.734Z,42.45
2023-02-18T20:37:43.270Z,35.28
2023-02-18T20:40:14.757Z,42.50
2023-02-18T20:42:46.249Z,39.90
2023-02-18T20:45:18.060Z,43.37
2023-02-18T20:47:49.580Z,43.22
2023-02-18T20:50:20.984Z,41.78
2023-02-18T20:52:52.676Z,40.38
2023-02-18T20:55:24.127Z,41.55
2023-02-18T20:57:55.547Z,43.13
2023-02-18T21:00:26.950Z,46.83
2023-02-18T21:02:58.459Z,37.83
2023-02-18T21:05:29.948Z,45.13
2023-02-18T21:08:01.423Z,43.55
2023-02-18T21:10:32.887Z,49.00
2023-02-18T21:13:04.294Z,44.92
2023-02-18T21:15:37.632Z,43.67
2023-02-18T21:18:09.122Z,40.03
2023-02-18T21:20:41.242Z,34.78
2023-02-18T21:23:13.006Z,33.05
2023-02-18T21:25:44.591Z,39.13
2023-02-18T21:28:16.134Z,35.35
2023-02-18T21:30:47.615Z,30.80
2023-02-18T21:33:19.086Z,35.03
2023-02-18T21:35:50.547Z,36.08
2023-02-18T21:38:21.998Z,33.88
2023-02-18T21:40:53.464Z,36.47
2023-02-18T21:43:24.876Z,32.38
2023-02-18T21:46:08.216Z,43.80
2023-02-18T21:48:39.681Z,38.23
2023-02-18T21:51:11.298Z,39.92
2023-02-18T21:53:42.797Z,43.27
2023-02-18T21:56:14.193Z,42.22
2023-02-18T21:58:45.664Z,38.00
2023-02-18T22:01:17.133Z,38.60
2023-02-18T22:03:48.664Z,39.83
2023-02-18T22:06:20.083Z,43.22
2023-02-18T22:08:51.682Z,41.38
2023-02-18T22:11:23.110Z,44.23
2023-02-18T22:13:54.750Z,37.83
2023-02-18T22:16:26.227Z,41.87
2023-02-18T22:18:57.973Z,43.60
2023-02-18T22:21:29.517Z,37.50
2023-02-18T22:24:00.939Z,37.60
2023-02-18T22:26:32.962Z,37.20
2023-02-18T22:29:04.447Z,39.73
2023-02-18T22:31:37.009Z,33.85
2023-02-18T22:34:09.220Z,42.93
2023-02-18T22:36:40.762Z,41.20
2023-02-18T22:39:13.225Z,39.05
2023-02-18T22:41:44.949Z,31.48
2023-02-18T22:44:17.489Z,34.10
2023-02-18T22:46:48.906Z,37.97
2023-02-18T22:49:20.364Z,33.00
2023-02-18T22:51:53.928Z,23.80
2023-02-18T22:54:25.414Z,29.40
2023-02-18T22:56:56.881Z,23.05
2023-02-18T22:59:28.413Z,26.98
2023-02-18T23:01:59.813Z,27.25
2023-02-18T23:04:31.233Z,26.67
2023-02-18T23:07:02.685Z,26.25
2023-02-18T23:09:34.216Z,24.42
2023-02-18T23:12:05.848Z,26.13
2023-02-18T23:14:37.326Z,28.92
2023-02-18T23:17:08.763Z,29.20
2023-02-18T23:19:42.520Z,31.85
2023-02-18T23:22:17.185Z,33.13
2023-02-18T23:24:48.650Z,28.50
2023-02-18T23:27:20.156Z,26.88
2023-02-18T23:29:53.023Z,27.77
2023-02-18T23:32:24.912Z,30.73
2023-02-18T23:34:56.358Z,29.23
2023-02-18T23:37:27.777Z,34.88
2023-02-18T23:39:59.208Z,30.90
2023-02-18T23:42:30.642Z,30.00
2023-02-18T23:45:02.059Z,26.50
2023-02-18T23:47:33.480Z,25.67
2023-02-18T23:50:05.138Z,26.20
2023-02-18T23:52:37.029Z,18.85
2023-02-18T23:55:10.204Z,22.00
2023-02-18T23:57:41.678Z,19.42
